METAR Data
IDs: Format: Raw Decoded Include TAF

Data at: 0847 UTC 01 Aug 2021

VTBD 010830Z 28014KT 250V310 9999 FEW020 SCT040 33/23 Q1004 NOSIG